createdAt,value
2023-03-10T00:00:11.016Z,18.31
2023-03-10T00:00:42.415Z,18.31
2023-03-10T00:01:13.827Z,18.31
2023-03-10T00:01:45.249Z,18.30
2023-03-10T00:02:16.999Z,18.30
2023-03-10T00:02:48.397Z,18.29
2023-03-10T00:03:19.816Z,18.29
2023-03-10T00:03:51.235Z,18.28
2023-03-10T00:04:22.658Z,18.31
2023-03-10T00:04:54.182Z,18.29
2023-03-10T00:05:25.721Z,18.29
2023-03-10T00:05:57.233Z,18.27
2023-03-10T00:06:28.658Z,18.26
2023-03-10T00:07:00.048Z,18.28
2023-03-10T00:07:31.460Z,18.26
2023-03-10T00:08:02.866Z,18.26
2023-03-10T00:08:34.348Z,18.26
2023-03-10T00:09:05.783Z,18.26
2023-03-10T00:09:37.197Z,18.27
2023-03-10T00:10:08.610Z,18.26
2023-03-10T00:10:40.026Z,18.25
2023-03-10T00:11:11.416Z,18.26
2023-03-10T00:11:42.810Z,18.25
2023-03-10T00:12:14.237Z,18.24
2023-03-10T00:12:45.665Z,18.24
2023-03-10T00:13:17.078Z,18.23
2023-03-10T00:13:48.521Z,18.25
2023-03-10T00:14:19.926Z,18.25
2023-03-10T00:14:51.314Z,18.24
2023-03-10T00:15:22.723Z,18.24
2023-03-10T00:15:54.302Z,18.24
2023-03-10T00:16:25.773Z,18.23
2023-03-10T00:16:57.193Z,18.24
2023-03-10T00:17:28.613Z,18.23
2023-03-10T00:18:00.030Z,18.23
2023-03-10T00:18:31.500Z,18.24
2023-03-10T00:19:02.955Z,18.22
2023-03-10T00:19:34.377Z,18.23
2023-03-10T00:20:05.766Z,18.22
2023-03-10T00:20:37.171Z,18.23
2023-03-10T00:21:08.571Z,18.21
2023-03-10T00:21:39.990Z,18.23
2023-03-10T00:22:11.395Z,18.22
2023-03-10T00:22:42.829Z,18.22
2023-03-10T00:23:14.232Z,18.22
2023-03-10T00:23:45.627Z,18.20
2023-03-10T00:24:17.067Z,18.21
2023-03-10T00:24:48.478Z,18.19
2023-03-10T00:25:19.907Z,18.19
2023-03-10T00:25:51.307Z,18.19
2023-03-10T00:26:22.695Z,18.17
2023-03-10T00:26:54.131Z,18.18
2023-03-10T00:27:25.544Z,18.19
2023-03-10T00:27:56.946Z,18.16
2023-03-10T00:28:28.372Z,18.16
2023-03-10T00:28:59.786Z,18.16
2023-03-10T00:29:31.220Z,18.16
2023-03-10T00:30:02.618Z,18.16
2023-03-10T00:30:34.035Z,18.15
2023-03-10T00:31:05.466Z,18.16
2023-03-10T00:31:36.916Z,18.15
2023-03-10T00:32:08.447Z,18.15
2023-03-10T00:32:39.942Z,18.12
2023-03-10T00:33:11.396Z,18.14
2023-03-10T00:33:42.808Z,18.13
2023-03-10T00:34:14.210Z,18.13
2023-03-10T00:34:45.619Z,18.14
2023-03-10T00:35:17.039Z,18.13
2023-03-10T00:35:48.488Z,18.12
2023-03-10T00:36:19.892Z,18.11
2023-03-10T00:36:51.286Z,18.11
2023-03-10T00:37:22.688Z,18.10
2023-03-10T00:37:55.523Z,18.12
2023-03-10T00:38:26.941Z,18.10
2023-03-10T00:38:58.390Z,18.11
2023-03-10T00:39:29.804Z,18.11
2023-03-10T00:40:01.271Z,18.12
2023-03-10T00:40:32.689Z,18.11
2023-03-10T00:41:04.125Z,18.09
2023-03-10T00:41:35.530Z,18.09
2023-03-10T00:42:06.945Z,18.11
2023-03-10T00:42:38.374Z,18.09
2023-03-10T00:43:09.771Z,18.10
2023-03-10T00:43:41.209Z,18.08
2023-03-10T00:44:12.651Z,18.09
2023-03-10T00:44:44.068Z,18.08
2023-03-10T00:45:15.483Z,18.07
2023-03-10T00:45:46.877Z,18.07
2023-03-10T00:46:18.327Z,18.06
2023-03-10T00:46:49.838Z,18.07
2023-03-10T00:47:21.282Z,18.07
2023-03-10T00:47:52.707Z,18.07
2023-03-10T00:48:24.108Z,18.08
2023-03-10T00:48:55.524Z,18.08
2023-03-10T00:49:26.913Z,18.06
2023-03-10T00:49:58.338Z,18.05
2023-03-10T00:50:29.775Z,18.05
2023-03-10T00:51:01.185Z,18.04
2023-03-10T00:51:32.614Z,18.05
2023-03-10T00:52:04.043Z,18.04
2023-03-10T00:52:35.456Z,18.04
2023-03-10T00:53:06.870Z,18.04
2023-03-10T00:53:38.239Z,18.04
2023-03-10T00:54:09.644Z,18.03
2023-03-10T00:54:41.126Z,18.03
2023-03-10T00:55:12.528Z,18.02
2023-03-10T00:55:43.965Z,18.02
2023-03-10T00:56:15.349Z,18.01
2023-03-10T00:56:46.762Z,18.02
2023-03-10T00:57:18.162Z,18.00
2023-03-10T00:57:49.552Z,18.00
2023-03-10T00:58:20.959Z,18.00
2023-03-10T00:58:52.349Z,18.00
2023-03-10T00:59:23.769Z,18.00
2023-03-10T00:59:55.176Z,17.99
2023-03-10T01:00:26.583Z,17.98
2023-03-10T01:00:57.995Z,17.98
2023-03-10T01:01:29.454Z,17.99
2023-03-10T01:02:00.982Z,17.98
2023-03-10T01:02:32.479Z,17.98
2023-03-10T01:03:03.881Z,17.97
2023-03-10T01:03:35.284Z,17.97
2023-03-10T01:04:06.747Z,17.97
2023-03-10T01:04:38.202Z,17.96
2023-03-10T01:05:09.634Z,17.95
2023-03-10T01:05:41.064Z,17.94
2023-03-10T01:06:12.504Z,17.95
2023-03-10T01:06:43.896Z,17.94
2023-03-10T01:07:15.302Z,17.93
2023-03-10T01:07:46.712Z,17.94
2023-03-10T01:08:18.125Z,17.94
2023-03-10T01:08:49.531Z,17.92
2023-03-10T01:09:20.943Z,17.93
2023-03-10T01:09:52.333Z,17.94
2023-03-10T01:10:23.742Z,17.94
2023-03-10T01:10:55.138Z,17.92
2023-03-10T01:11:26.594Z,17.94
2023-03-10T01:11:58.085Z,17.94
2023-03-10T01:12:29.485Z,17.94
2023-03-10T01:13:00.899Z,17.93
2023-03-10T01:13:32.309Z,17.92
2023-03-10T01:14:03.708Z,17.93
2023-03-10T01:14:35.119Z,17.91
2023-03-10T01:15:06.528Z,17.92
2023-03-10T01:15:37.928Z,17.91
2023-03-10T01:16:09.405Z,17.91
2023-03-10T01:16:40.969Z,17.91
2023-03-10T01:17:12.371Z,17.90
2023-03-10T01:17:43.787Z,17.92
2023-03-10T01:18:15.205Z,17.89
2023-03-10T01:18:46.623Z,17.91
2023-03-10T01:19:18.018Z,17.91
2023-03-10T01:19:49.416Z,17.89
2023-03-10T01:20:20.826Z,17.88
2023-03-10T01:20:52.262Z,17.90
2023-03-10T01:21:23.672Z,17.90
2023-03-10T01:21:55.108Z,17.89
2023-03-10T01:22:26.503Z,17.89
2023-03-10T01:22:57.911Z,17.88
2023-03-10T01:23:29.325Z,17.88
2023-03-10T01:24:00.742Z,17.88
2023-03-10T01:24:32.166Z,17.87
2023-03-10T01:25:03.569Z,17.87
2023-03-10T01:25:34.966Z,17.88
2023-03-10T01:26:06.353Z,17.88
2023-03-10T01:26:37.775Z,17.87
2023-03-10T01:27:09.225Z,17.86
2023-03-10T01:27:40.641Z,17.88
2023-03-10T01:28:12.067Z,17.87
2023-03-10T01:28:43.507Z,17.87
2023-03-10T01:29:14.914Z,17.86
2023-03-10T01:29:46.318Z,17.86
2023-03-10T01:30:17.730Z,17.86
2023-03-10T01:30:49.165Z,17.84
2023-03-10T01:31:20.669Z,17.85
2023-03-10T01:31:53.498Z,17.83
2023-03-10T01:32:25.016Z,17.85
2023-03-10T01:32:56.429Z,17.85
2023-03-10T01:33:27.865Z,17.84
2023-03-10T01:33:59.286Z,17.83
2023-03-10T01:34:30.675Z,17.85
2023-03-10T01:35:02.119Z,17.84
2023-03-10T01:35:33.612Z,17.84
2023-03-10T01:36:05.105Z,17.85
2023-03-10T01:36:36.568Z,17.85
2023-03-10T01:37:07.973Z,17.85
2023-03-10T01:37:39.411Z,17.84
2023-03-10T01:38:12.175Z,17.85
2023-03-10T01:38:43.608Z,17.83
2023-03-10T01:39:15.030Z,17.83
2023-03-10T01:39:46.436Z,17.84
2023-03-10T01:40:17.847Z,17.84
2023-03-10T01:40:49.288Z,17.83
2023-03-10T01:41:20.715Z,17.83
2023-03-10T01:41:52.138Z,17.82
2023-03-10T01:42:23.542Z,17.83
2023-03-10T01:42:54.936Z,17.83
2023-03-10T01:43:26.405Z,17.83
2023-03-10T01:43:57.824Z,17.82
2023-03-10T01:44:29.266Z,17.83
2023-03-10T01:45:00.686Z,17.81
2023-03-10T01:45:32.076Z,17.81
2023-03-10T01:46:03.487Z,17.81
2023-03-10T01:46:34.967Z,17.82
2023-03-10T01:47:06.497Z,17.81
2023-03-10T01:47:37.901Z,17.82
2023-03-10T01:48:09.306Z,17.81
2023-03-10T01:48:40.725Z,17.80
2023-03-10T01:49:12.145Z,17.81
2023-03-10T01:49:43.574Z,17.82
2023-03-10T01:50:15.006Z,17.80
2023-03-10T01:50:46.417Z,17.79
2023-03-10T01:51:17.829Z,17.80
2023-03-10T01:51:49.230Z,17.80
2023-03-10T01:52:20.644Z,17.79
2023-03-10T01:52:52.039Z,17.80
2023-03-10T01:53:23.433Z,17.78
2023-03-10T01:53:54.842Z,17.80
2023-03-10T01:54:26.236Z,17.78
2023-03-10T01:54:57.671Z,17.80
2023-03-10T01:55:29.090Z,17.78
2023-03-10T01:56:00.489Z,17.76
2023-03-10T01:56:31.909Z,17.76
2023-03-10T01:57:03.370Z,17.77
2023-03-10T01:57:34.768Z,17.77
2023-03-10T01:58:06.160Z,17.77
2023-03-10T01:58:37.564Z,17.77
2023-03-10T01:59:08.976Z,17.77
2023-03-10T01:59:40.397Z,17.77
2023-03-10T02:00:11.825Z,17.77
2023-03-10T02:00:43.287Z,17.77
2023-03-10T02:01:14.805Z,17.77
2023-03-10T02:01:46.267Z,17.77
2023-03-10T02:02:17.747Z,17.78
2023-03-10T02:02:49.178Z,17.74
2023-03-10T02:03:20.597Z,17.75
2023-03-10T02:03:52.136Z,17.76
2023-03-10T02:04:23.571Z,17.75
2023-03-10T02:04:54.947Z,17.74
2023-03-10T02:05:26.385Z,17.73
2023-03-10T02:05:57.825Z,17.74
2023-03-10T02:06:29.234Z,17.73
2023-03-10T02:07:00.635Z,17.73
2023-03-10T02:07:32.028Z,17.74
2023-03-10T02:08:03.428Z,17.74
2023-03-10T02:08:34.853Z,17.74
2023-03-10T02:09:06.279Z,17.73
2023-03-10T02:09:37.772Z,17.72
2023-03-10T02:10:09.164Z,17.72
2023-03-10T02:10:40.595Z,17.73
2023-03-10T02:11:11.982Z,17.72
2023-03-10T02:11:43.390Z,17.72
2023-03-10T02:12:14.809Z,17.72
2023-03-10T02:12:46.261Z,17.72
2023-03-10T02:13:19.072Z,17.71
2023-03-10T02:13:50.486Z,17.72
2023-03-10T02:14:21.919Z,17.71
2023-03-10T02:14:53.318Z,17.70
2023-03-10T02:15:24.734Z,17.71
2023-03-10T02:15:56.197Z,17.72
2023-03-10T02:16:27.664Z,17.72
2023-03-10T02:16:59.134Z,17.71
2023-03-10T02:17:30.550Z,17.72
2023-03-10T02:18:02.060Z,17.69
2023-03-10T02:18:33.509Z,17.71
2023-03-10T02:19:04.925Z,17.70
2023-03-10T02:19:36.354Z,17.70
2023-03-10T02:20:07.734Z,17.70
2023-03-10T02:20:39.128Z,17.69
2023-03-10T02:21:10.555Z,17.68
2023-03-10T02:21:41.976Z,17.69
2023-03-10T02:22:13.386Z,17.69
2023-03-10T02:22:44.790Z,17.68
2023-03-10T02:23:16.198Z,17.68
2023-03-10T02:23:58.720Z,17.69
2023-03-10T02:24:32.204Z,17.66
2023-03-10T02:25:03.604Z,17.67
2023-03-10T02:25:35.045Z,17.68
2023-03-10T02:26:06.479Z,17.66
2023-03-10T02:26:37.909Z,17.66
2023-03-10T02:27:09.342Z,17.65
2023-03-10T02:27:40.742Z,17.66
2023-03-10T02:28:12.146Z,17.66
2023-03-10T02:28:43.535Z,17.64
2023-03-10T02:29:14.952Z,17.66
2023-03-10T02:29:58.461Z,17.66
2023-03-10T02:30:30.915Z,17.66
2023-03-10T02:31:02.329Z,17.65
2023-03-10T02:31:33.811Z,17.66
2023-03-10T02:32:06.380Z,17.66
2023-03-10T02:32:37.824Z,17.66
2023-03-10T02:33:09.236Z,17.66
2023-03-10T02:33:40.645Z,17.66
2023-03-10T02:34:12.068Z,17.65
2023-03-10T02:34:43.491Z,17.63
2023-03-10T02:35:14.907Z,17.63
2023-03-10T02:35:46.378Z,17.64
2023-03-10T02:36:17.863Z,17.62
2023-03-10T02:36:49.270Z,17.63
2023-03-10T02:37:20.683Z,17.63
2023-03-10T02:37:52.098Z,17.62
2023-03-10T02:38:23.509Z,17.62
2023-03-10T02:38:54.906Z,17.62
2023-03-10T02:39:26.311Z,17.60
2023-03-10T02:39:57.753Z,17.62
2023-03-10T02:40:29.160Z,17.62
2023-03-10T02:41:00.593Z,17.61
2023-03-10T02:41:32.032Z,17.61
2023-03-10T02:42:03.461Z,17.61
2023-03-10T02:42:34.879Z,17.61
2023-03-10T02:43:06.366Z,17.61
2023-03-10T02:43:37.798Z,17.59
2023-03-10T02:44:09.192Z,17.60
2023-03-10T02:44:40.643Z,17.59
2023-03-10T02:45:12.036Z,17.59
2023-03-10T02:45:43.486Z,17.59
2023-03-10T02:46:15.133Z,17.58
2023-03-10T02:46:46.584Z,17.58
2023-03-10T02:47:18.004Z,17.59
2023-03-10T02:47:49.413Z,17.60
2023-03-10T02:48:20.856Z,17.60
2023-03-10T02:48:52.256Z,17.59
2023-03-10T02:49:23.668Z,17.58
2023-03-10T02:49:55.086Z,17.57
2023-03-10T02:50:26.488Z,17.58
2023-03-10T02:50:57.904Z,17.59
2023-03-10T02:51:29.302Z,17.57
2023-03-10T02:52:00.736Z,17.57
2023-03-10T02:52:32.157Z,17.57
2023-03-10T02:53:03.555Z,17.56
2023-03-10T02:53:34.998Z,17.57
2023-03-10T02:54:06.388Z,17.57
2023-03-10T02:54:37.792Z,17.55
2023-03-10T02:55:09.210Z,17.57
2023-03-10T02:55:40.609Z,17.56
2023-03-10T02:56:12.014Z,17.56
2023-03-10T02:56:43.426Z,17.55
2023-03-10T02:57:14.830Z,17.54
2023-03-10T02:57:46.239Z,17.55
2023-03-10T02:58:17.672Z,17.56
2023-03-10T02:58:49.137Z,17.56
2023-03-10T02:59:20.652Z,17.56
2023-03-10T02:59:52.041Z,17.55
2023-03-10T03:00:23.462Z,17.54
2023-03-10T03:00:54.892Z,17.55
2023-03-10T03:01:26.447Z,17.54
2023-03-10T03:01:57.956Z,17.53
2023-03-10T03:02:29.364Z,17.54
2023-03-10T03:03:00.752Z,17.53
2023-03-10T03:03:32.213Z,17.54
2023-03-10T03:04:03.710Z,17.55
2023-03-10T03:04:35.166Z,17.53
2023-03-10T03:05:06.608Z,17.53
2023-03-10T03:05:38.012Z,17.52
2023-03-10T03:06:09.414Z,17.52
2023-03-10T03:06:40.817Z,17.52
2023-03-10T03:07:12.220Z,17.52
2023-03-10T03:07:43.615Z,17.52
2023-03-10T03:08:15.025Z,17.52
2023-03-10T03:08:46.455Z,17.52
2023-03-10T03:09:17.908Z,17.52
2023-03-10T03:09:49.308Z,17.52
2023-03-10T03:10:20.723Z,17.52
2023-03-10T03:10:52.114Z,17.52
2023-03-10T03:11:23.523Z,17.52
2023-03-10T03:11:54.912Z,17.52
2023-03-10T03:12:26.303Z,17.51
2023-03-10T03:12:57.722Z,17.51
2023-03-10T03:13:29.114Z,17.49
2023-03-10T03:14:00.513Z,17.48
2023-03-10T03:14:31.931Z,17.48
2023-03-10T03:15:03.320Z,17.47
2023-03-10T03:15:34.730Z,17.49
2023-03-10T03:16:06.138Z,17.49
2023-03-10T03:16:37.586Z,17.48
2023-03-10T03:17:09.011Z,17.47
2023-03-10T03:17:40.424Z,17.47
2023-03-10T03:18:11.839Z,17.48
2023-03-10T03:18:43.264Z,17.48
2023-03-10T03:19:14.668Z,17.49
2023-03-10T03:19:46.095Z,17.47
2023-03-10T03:20:17.500Z,17.48
2023-03-10T03:20:48.915Z,17.49
2023-03-10T03:21:20.307Z,17.47
2023-03-10T03:21:51.723Z,17.47
2023-03-10T03:22:23.126Z,17.47
2023-03-10T03:22:54.546Z,17.47
2023-03-10T03:23:26.111Z,17.47
2023-03-10T03:23:57.563Z,17.46
2023-03-10T03:24:28.959Z,17.46
2023-03-10T03:25:00.393Z,17.44
2023-03-10T03:25:31.803Z,17.46
2023-03-10T03:26:03.216Z,17.45
2023-03-10T03:26:34.630Z,17.44
2023-03-10T03:27:06.036Z,17.43
2023-03-10T03:27:37.455Z,17.44
2023-03-10T03:28:08.853Z,17.43
2023-03-10T03:28:40.249Z,17.43
2023-03-10T03:29:11.669Z,17.43
2023-03-10T03:29:43.086Z,17.45
2023-03-10T03:30:14.512Z,17.44
2023-03-10T03:30:45.905Z,17.43
2023-03-10T03:31:17.342Z,17.43
2023-03-10T03:31:48.827Z,17.43
2023-03-10T03:32:20.287Z,17.42
2023-03-10T03:32:51.755Z,17.43
2023-03-10T03:33:23.211Z,17.42
2023-03-10T03:33:54.613Z,17.42
2023-03-10T03:34:26.014Z,17.41
2023-03-10T03:34:57.494Z,17.40
2023-03-10T03:35:28.984Z,17.40
2023-03-10T03:36:00.471Z,17.41
2023-03-10T03:36:31.893Z,17.40
2023-03-10T03:37:03.288Z,17.39
2023-03-10T03:37:34.700Z,17.39
2023-03-10T03:38:06.112Z,17.39
2023-03-10T03:38:37.519Z,17.37
2023-03-10T03:39:08.947Z,17.39
2023-03-10T03:39:40.455Z,17.39
2023-03-10T03:40:11.928Z,17.38
2023-03-10T03:40:43.346Z,17.37
2023-03-10T03:41:14.751Z,17.38
2023-03-10T03:41:46.185Z,17.37
2023-03-10T03:42:17.591Z,17.34
2023-03-10T03:42:49.015Z,17.36
2023-03-10T03:43:20.442Z,17.37
2023-03-10T03:43:51.853Z,17.37
2023-03-10T03:44:23.267Z,17.37
2023-03-10T03:44:54.720Z,17.36
2023-03-10T03:45:26.131Z,17.36
2023-03-10T03:45:57.684Z,17.38
2023-03-10T03:46:29.163Z,17.36
2023-03-10T03:47:00.614Z,17.35
2023-03-10T03:47:32.004Z,17.34
2023-03-10T03:48:03.423Z,17.33
2023-03-10T03:48:36.205Z,17.34
2023-03-10T03:49:07.616Z,17.33
2023-03-10T03:49:39.016Z,17.34
2023-03-10T03:50:10.464Z,17.33
2023-03-10T03:50:41.870Z,17.32
2023-03-10T03:51:13.301Z,17.33
2023-03-10T03:51:44.720Z,17.32
2023-03-10T03:52:16.147Z,17.31
2023-03-10T03:52:47.544Z,17.31
2023-03-10T03:53:18.935Z,17.32
2023-03-10T03:53:50.335Z,17.30
2023-03-10T03:54:21.754Z,17.32
2023-03-10T03:54:53.149Z,17.31
2023-03-10T03:55:24.579Z,17.30
2023-03-10T03:55:55.986Z,17.31
2023-03-10T03:56:27.418Z,17.30
2023-03-10T03:56:58.841Z,17.31
2023-03-10T03:57:30.275Z,17.29
2023-03-10T03:58:01.686Z,17.29
2023-03-10T03:58:33.092Z,17.30
2023-03-10T03:59:04.483Z,17.30
2023-03-10T03:59:35.878Z,17.29
2023-03-10T04:00:07.294Z,17.30
2023-03-10T04:00:38.757Z,17.30
2023-03-10T04:01:10.155Z,17.30
2023-03-10T04:01:41.573Z,17.29
2023-03-10T04:02:13.064Z,17.29
2023-03-10T04:02:44.558Z,17.30
2023-03-10T04:03:16.254Z,17.28
2023-03-10T04:03:47.778Z,17.27
2023-03-10T04:04:19.202Z,17.27
2023-03-10T04:04:50.607Z,17.28
2023-03-10T04:05:22.016Z,17.28
2023-03-10T04:05:53.405Z,17.27
2023-03-10T04:06:24.795Z,17.28
2023-03-10T04:06:56.243Z,17.26
2023-03-10T04:07:27.653Z,17.27
2023-03-10T04:07:59.040Z,17.27
2023-03-10T04:08:30.463Z,17.27
2023-03-10T04:09:01.857Z,17.26
2023-03-10T04:09:33.271Z,17.26
2023-03-10T04:10:04.667Z,17.25
2023-03-10T04:10:36.107Z,17.26
2023-03-10T04:11:07.517Z,17.26
2023-03-10T04:11:38.938Z,17.24
2023-03-10T04:12:10.405Z,17.25
2023-03-10T04:12:41.838Z,17.25
2023-03-10T04:13:13.243Z,17.26
2023-03-10T04:13:44.665Z,17.25
2023-03-10T04:14:16.070Z,17.26
2023-03-10T04:14:47.481Z,17.26
2023-03-10T04:15:18.895Z,17.26
2023-03-10T04:15:50.362Z,17.26
2023-03-10T04:16:21.884Z,17.25
2023-03-10T04:16:53.343Z,17.26
2023-03-10T04:17:24.794Z,17.25
2023-03-10T04:17:56.237Z,17.26
2023-03-10T04:18:27.644Z,17.25
2023-03-10T04:18:59.045Z,17.25
2023-03-10T04:19:30.442Z,17.26
2023-03-10T04:20:07.442Z,17.25
2023-03-10T04:20:39.355Z,17.24
2023-03-10T04:21:10.748Z,17.25
2023-03-10T04:21:42.139Z,17.25
2023-03-10T04:22:13.538Z,17.25
2023-03-10T04:22:44.942Z,17.24
2023-03-10T04:23:16.336Z,17.23
2023-03-10T04:23:47.755Z,17.24
2023-03-10T04:24:19.179Z,17.22
2023-03-10T04:24:50.598Z,17.23
2023-03-10T04:25:22.014Z,17.22
2023-03-10T04:25:53.437Z,17.23
2023-03-10T04:26:24.859Z,17.23
2023-03-10T04:26:56.286Z,17.24
2023-03-10T04:27:27.685Z,17.23
2023-03-10T04:27:59.108Z,17.23
2023-03-10T04:28:30.541Z,17.22
2023-03-10T04:29:01.935Z,17.23
2023-03-10T04:29:33.356Z,17.22
2023-03-10T04:30:04.760Z,17.22
2023-03-10T04:30:36.169Z,17.20
2023-03-10T04:31:07.620Z,17.21
2023-03-10T04:31:39.161Z,17.20
2023-03-10T04:32:10.626Z,17.20
2023-03-10T04:32:42.186Z,17.20
2023-03-10T04:33:13.655Z,17.20
2023-03-10T04:33:45.066Z,17.19
2023-03-10T04:34:16.469Z,17.18
2023-03-10T04:34:47.863Z,17.19
2023-03-10T04:35:19.253Z,17.18
2023-03-10T04:35:50.686Z,17.19
2023-03-10T04:36:22.105Z,17.19
2023-03-10T04:36:53.518Z,17.18
2023-03-10T04:37:24.908Z,17.16
2023-03-10T04:37:56.328Z,17.17
2023-03-10T04:38:27.909Z,17.17
2023-03-10T04:38:59.302Z,17.17
2023-03-10T04:39:30.712Z,17.18
2023-03-10T04:40:02.087Z,17.17
2023-03-10T04:40:33.512Z,17.16
2023-03-10T04:41:04.915Z,17.16
2023-03-10T04:41:36.316Z,17.17
2023-03-10T04:42:07.711Z,17.17
2023-03-10T04:42:39.122Z,17.15
2023-03-10T04:43:10.545Z,17.15
2023-03-10T04:43:43.283Z,17.17
2023-03-10T04:44:29.818Z,17.16
2023-03-10T04:45:01.765Z,17.15
2023-03-10T04:45:33.164Z,17.15
2023-03-10T04:46:04.595Z,17.16
2023-03-10T04:46:36.034Z,17.15
2023-03-10T04:47:07.498Z,17.15
2023-03-10T04:47:38.926Z,17.16
2023-03-10T04:48:10.348Z,17.16
2023-03-10T04:48:41.776Z,17.16
2023-03-10T04:49:13.187Z,17.16
2023-03-10T04:49:44.570Z,17.16
2023-03-10T04:50:15.977Z,17.15
2023-03-10T04:50:47.389Z,17.14
2023-03-10T04:51:18.789Z,17.14
2023-03-10T04:51:50.201Z,17.15
2023-03-10T04:52:21.603Z,17.14
2023-03-10T04:52:53.007Z,17.14
2023-03-10T04:53:24.409Z,17.15
2023-03-10T04:53:55.865Z,17.13
2023-03-10T04:54:27.266Z,17.14
2023-03-10T04:54:58.660Z,17.13
2023-03-10T04:55:30.075Z,17.13
2023-03-10T04:56:01.485Z,17.13
2023-03-10T04:56:32.888Z,17.13
2023-03-10T04:57:04.284Z,17.13
2023-03-10T04:57:35.700Z,17.13
2023-03-10T04:58:07.108Z,17.13
2023-03-10T04:58:38.500Z,17.12
2023-03-10T04:59:09.958Z,17.11
2023-03-10T04:59:41.368Z,17.12
2023-03-10T05:00:12.908Z,17.11
2023-03-10T05:01:00.409Z,17.12
2023-03-10T05:01:34.095Z,17.11
2023-03-10T05:02:05.577Z,17.12
2023-03-10T05:02:37.019Z,17.09
2023-03-10T05:03:08.422Z,17.09
2023-03-10T05:03:39.846Z,17.09
2023-03-10T05:04:11.357Z,17.11
2023-03-10T05:04:42.899Z,17.09
2023-03-10T05:05:14.377Z,17.08
2023-03-10T05:05:45.772Z,17.11
2023-03-10T05:06:17.191Z,17.09
2023-03-10T05:06:48.584Z,17.10
2023-03-10T05:07:20.008Z,17.09
2023-03-10T05:07:51.398Z,17.09
2023-03-10T05:08:22.828Z,17.09
2023-03-10T05:08:54.257Z,17.09
2023-03-10T05:09:25.683Z,17.09
2023-03-10T05:09:57.106Z,17.09
2023-03-10T05:10:28.509Z,17.08
2023-03-10T05:10:59.903Z,17.08
2023-03-10T05:11:31.302Z,17.09
2023-03-10T05:12:02.714Z,17.09
2023-03-10T05:12:34.113Z,17.08
2023-03-10T05:13:05.517Z,17.08
2023-03-10T05:13:36.908Z,17.07
2023-03-10T05:14:08.319Z,17.08
2023-03-10T05:14:39.748Z,17.08
2023-03-10T05:15:11.162Z,17.07
2023-03-10T05:15:42.610Z,17.07
2023-03-10T05:16:14.099Z,17.07
2023-03-10T05:16:45.522Z,17.07
2023-03-10T05:17:16.941Z,17.08
2023-03-10T05:17:50.100Z,17.05
2023-03-10T05:18:21.605Z,17.05
2023-03-10T05:18:53.042Z,17.05
2023-03-10T05:19:24.477Z,17.04
2023-03-10T05:19:55.917Z,17.05
2023-03-10T05:20:27.309Z,17.06
2023-03-10T05:20:58.730Z,17.04
2023-03-10T05:21:30.141Z,17.05
2023-03-10T05:22:01.532Z,17.05
2023-03-10T05:22:32.963Z,17.05
2023-03-10T05:23:04.368Z,17.05
2023-03-10T05:23:35.834Z,17.04
2023-03-10T05:24:07.266Z,17.05
2023-03-10T05:24:38.672Z,17.05
2023-03-10T05:25:10.136Z,17.05
2023-03-10T05:25:41.531Z,17.05
2023-03-10T05:26:12.925Z,17.05
2023-03-10T05:26:44.325Z,17.05
2023-03-10T05:27:15.718Z,17.04
2023-03-10T05:27:47.120Z,17.04
2023-03-10T05:28:18.540Z,17.04
2023-03-10T05:28:49.958Z,17.04
2023-03-10T05:29:21.363Z,17.04
2023-03-10T05:29:52.771Z,17.04
2023-03-10T05:30:24.240Z,17.04
2023-03-10T05:30:55.696Z,17.03
2023-03-10T05:31:27.174Z,17.02
2023-03-10T05:31:58.606Z,17.02
2023-03-10T05:32:30.040Z,17.03
2023-03-10T05:33:01.514Z,17.03
2023-03-10T05:33:32.919Z,17.04
2023-03-10T05:34:04.311Z,17.03
2023-03-10T05:34:35.781Z,17.05
2023-03-10T05:35:07.176Z,17.05
2023-03-10T05:35:38.710Z,17.05
2023-03-10T05:36:10.215Z,17.06
2023-03-10T05:36:41.645Z,17.06
2023-03-10T05:37:13.052Z,17.05
2023-03-10T05:37:44.511Z,17.05
2023-03-10T05:38:15.931Z,17.05
2023-03-10T05:38:47.345Z,17.05
2023-03-10T05:39:18.760Z,17.06
2023-03-10T05:39:50.162Z,17.06
2023-03-10T05:40:21.575Z,17.08
2023-03-10T05:40:53.035Z,17.07
2023-03-10T05:41:24.447Z,17.07
2023-03-10T05:41:55.864Z,17.08
2023-03-10T05:42:27.258Z,17.08
2023-03-10T05:42:58.667Z,17.08
2023-03-10T05:43:30.064Z,17.08
2023-03-10T05:44:01.462Z,17.08
2023-03-10T05:44:32.857Z,17.09
2023-03-10T05:45:04.262Z,17.10
2023-03-10T05:45:35.721Z,17.10
2023-03-10T05:46:07.155Z,17.10
2023-03-10T05:46:38.661Z,17.11
2023-03-10T05:47:10.082Z,17.11
2023-03-10T05:47:41.496Z,17.09
2023-03-10T05:48:12.892Z,17.11
2023-03-10T05:48:44.280Z,17.11
2023-03-10T05:49:15.704Z,17.11
2023-03-10T05:49:47.108Z,17.11
2023-03-10T05:50:18.507Z,17.12
2023-03-10T05:50:49.909Z,17.12
2023-03-10T05:51:21.311Z,17.12
2023-03-10T05:51:52.726Z,17.14
2023-03-10T05:52:24.119Z,17.13
2023-03-10T05:52:55.533Z,17.14
2023-03-10T05:53:26.929Z,17.14
2023-03-10T05:53:58.339Z,17.15
2023-03-10T05:54:29.759Z,17.15
2023-03-10T05:55:01.175Z,17.15
2023-03-10T05:55:32.581Z,17.15
2023-03-10T05:56:03.998Z,17.15
2023-03-10T05:56:35.415Z,17.15
2023-03-10T05:57:06.827Z,17.16
2023-03-10T05:57:38.232Z,17.17
2023-03-10T05:58:09.635Z,17.17
2023-03-10T05:58:41.046Z,17.16
2023-03-10T05:59:12.451Z,17.18
2023-03-10T05:59:43.852Z,17.17
2023-03-10T06:00:15.285Z,17.18
2023-03-10T06:00:46.683Z,17.19
2023-03-10T06:01:18.114Z,17.17
2023-03-10T06:01:49.529Z,17.19
2023-03-10T06:02:20.949Z,17.19
2023-03-10T06:02:52.397Z,17.19
2023-03-10T06:03:23.904Z,17.19
2023-03-10T06:03:55.492Z,17.19
2023-03-10T06:04:26.981Z,17.19
2023-03-10T06:04:58.466Z,17.20
2023-03-10T06:05:29.894Z,17.20
2023-03-10T06:06:01.315Z,17.20
2023-03-10T06:06:33.225Z,17.21
2023-03-10T06:07:04.711Z,17.21
2023-03-10T06:07:36.106Z,17.20
2023-03-10T06:08:07.521Z,17.21
2023-03-10T06:08:38.921Z,17.22
2023-03-10T06:09:10.336Z,17.22
2023-03-10T06:09:41.747Z,17.22
2023-03-10T06:10:13.156Z,17.22
2023-03-10T06:10:44.565Z,17.23
2023-03-10T06:11:16.737Z,17.22
2023-03-10T06:11:49.510Z,17.23
2023-03-10T06:12:21.211Z,17.23
2023-03-10T06:12:53.089Z,17.23
2023-03-10T06:13:24.858Z,17.23
2023-03-10T06:13:56.628Z,17.23
2023-03-10T06:14:28.459Z,17.23
2023-03-10T06:15:00.273Z,17.24
2023-03-10T06:15:32.118Z,17.24
2023-03-10T06:16:03.586Z,17.24
2023-03-10T06:16:35.114Z,17.23
2023-03-10T06:17:06.575Z,17.24
2023-03-10T06:17:37.990Z,17.24
2023-03-10T06:18:09.415Z,17.23
2023-03-10T06:18:40.812Z,17.25
2023-03-10T06:19:12.215Z,17.23
2023-03-10T06:19:43.628Z,17.23
2023-03-10T06:20:15.032Z,17.24
2023-03-10T06:20:46.442Z,17.25
2023-03-10T06:21:17.860Z,17.25
2023-03-10T06:21:49.253Z,17.24
2023-03-10T06:22:20.669Z,17.25
2023-03-10T06:22:52.079Z,17.26
2023-03-10T06:23:23.487Z,17.25
2023-03-10T06:23:54.899Z,17.25
2023-03-10T06:24:26.291Z,17.25
2023-03-10T06:24:57.746Z,17.25
2023-03-10T06:25:29.150Z,17.26
2023-03-10T06:26:00.562Z,17.25
2023-03-10T06:26:31.964Z,17.26
2023-03-10T06:27:03.388Z,17.26
2023-03-10T06:27:34.850Z,17.25
2023-03-10T06:28:09.230Z,17.25
2023-03-10T06:28:41.085Z,17.26
2023-03-10T06:29:12.521Z,17.27
2023-03-10T06:29:43.941Z,17.27
2023-03-10T06:30:15.336Z,17.28
2023-03-10T06:30:46.765Z,17.27
2023-03-10T06:31:18.234Z,17.28
2023-03-10T06:31:49.785Z,17.27
2023-03-10T06:32:21.255Z,17.26
2023-03-10T06:32:52.775Z,17.27
2023-03-10T06:33:24.218Z,17.27
2023-03-10T06:33:55.616Z,17.28
2023-03-10T06:34:27.018Z,17.28
2023-03-10T06:34:58.682Z,17.28
2023-03-10T06:35:30.137Z,17.28
2023-03-10T06:36:01.583Z,17.28
2023-03-10T06:36:33.028Z,17.29
2023-03-10T06:37:04.434Z,17.29
2023-03-10T06:37:35.832Z,17.28
2023-03-10T06:38:07.243Z,17.29
2023-03-10T06:38:38.719Z,17.29
2023-03-10T06:39:10.284Z,17.29
2023-03-10T06:39:41.686Z,17.29
2023-03-10T06:40:13.087Z,17.30
2023-03-10T06:40:44.533Z,17.29
2023-03-10T06:41:15.951Z,17.29
2023-03-10T06:41:47.361Z,17.30
2023-03-10T06:42:18.768Z,17.30
2023-03-10T06:42:50.175Z,17.30
2023-03-10T06:43:21.576Z,17.31
2023-03-10T06:43:53.009Z,17.31
2023-03-10T06:44:24.428Z,17.31
2023-03-10T06:44:55.834Z,17.30
2023-03-10T06:45:27.504Z,17.32
2023-03-10T06:45:58.958Z,17.31